sensor_id;sensor_type;location;lat;lon;timestamp;P1;durP1;ratioP1;P2;durP2;ratioP2
11931;SDS011;6025;51.368;6.788;2022-10-30T00:03:47;9.15;;;3.97;;
11931;SDS011;6025;51.368;6.788;2022-10-30T00:08:39;11.80;;;4.22;;
11931;SDS011;6025;51.368;6.788;2022-10-30T00:13:30;9.77;;;3.65;;
11931;SDS011;6025;51.368;6.788;2022-10-30T00:18:22;11.57;;;4.22;;
11931;SDS011;6025;51.368;6.788;2022-10-30T00:23:15;9.23;;;4.35;;
11931;SDS011;6025;51.368;6.788;2022-10-30T00:28:06;16.73;;;3.90;;
11931;SDS011;6025;51.368;6.788;2022-10-30T00:32:58;11.07;;;4.00;;
11931;SDS011;6025;51.368;6.788;2022-10-30T00:37:49;11.73;;;3.97;;
11931;SDS011;6025;51.368;6.788;2022-10-30T00:42:42;12.18;;;3.80;;
11931;SDS011;6025;51.368;6.788;2022-10-30T00:47:35;17.17;;;4.28;;
11931;SDS011;6025;51.368;6.788;2022-10-30T00:52:28;10.48;;;3.95;;
11931;SDS011;6025;51.368;6.788;2022-10-30T00:57:21;12.38;;;4.13;;
11931;SDS011;6025;51.368;6.788;2022-10-30T01:02:14;7.82;;;4.00;;
11931;SDS011;6025;51.368;6.788;2022-10-30T01:07:08;13.25;;;4.45;;
11931;SDS011;6025;51.368;6.788;2022-10-30T01:12:00;8.60;;;4.20;;
11931;SDS011;6025;51.368;6.788;2022-10-30T01:22:33;7.85;;;4.38;;
11931;SDS011;6025;51.368;6.788;2022-10-30T01:27:34;9.77;;;4.13;;
11931;SDS011;6025;51.368;6.788;2022-10-30T01:32:36;11.02;;;4.25;;
11931;SDS011;6025;51.368;6.788;2022-10-30T01:37:35;11.43;;;4.25;;
11931;SDS011;6025;51.368;6.788;2022-10-30T01:42:46;11.05;;;4.43;;
11931;SDS011;6025;51.368;6.788;2022-10-30T01:47:41;11.98;;;4.53;;
11931;SDS011;6025;51.368;6.788;2022-10-30T01:52:40;9.27;;;4.40;;
11931;SDS011;6025;51.368;6.788;2022-10-30T01:57:34;14.88;;;4.47;;
11931;SDS011;6025;51.368;6.788;2022-10-30T02:02:27;10.70;;;4.70;;
11931;SDS011;6025;51.368;6.788;2022-10-30T02:07:19;8.57;;;4.55;;
11931;SDS011;6025;51.368;6.788;2022-10-30T02:12:12;10.68;;;4.38;;
11931;SDS011;6025;51.368;6.788;2022-10-30T02:17:04;9.38;;;4.70;;
11931;SDS011;6025;51.368;6.788;2022-10-30T02:21:58;10.18;;;4.70;;
11931;SDS011;6025;51.368;6.788;2022-10-30T02:26:50;11.25;;;4.50;;
11931;SDS011;6025;51.368;6.788;2022-10-30T02:31:41;8.75;;;4.78;;
11931;SDS011;6025;51.368;6.788;2022-10-30T02:36:33;11.98;;;4.32;;
11931;SDS011;6025;51.368;6.788;2022-10-30T02:41:25;8.52;;;4.60;;
11931;SDS011;6025;51.368;6.788;2022-10-30T02:46:17;11.88;;;4.97;;
11931;SDS011;6025;51.368;6.788;2022-10-30T02:51:09;9.60;;;4.35;;
11931;SDS011;6025;51.368;6.788;2022-10-30T02:56:04;9.13;;;4.95;;
11931;SDS011;6025;51.368;6.788;2022-10-30T03:01:03;11.10;;;4.00;;
11931;SDS011;6025;51.368;6.788;2022-10-30T03:05:55;11.05;;;4.75;;
11931;SDS011;6025;51.368;6.788;2022-10-30T03:10:50;10.38;;;4.93;;
11931;SDS011;6025;51.368;6.788;2022-10-30T03:15:41;8.95;;;4.78;;
11931;SDS011;6025;51.368;6.788;2022-10-30T03:20:34;11.80;;;4.32;;
11931;SDS011;6025;51.368;6.788;2022-10-30T03:25:26;11.35;;;4.68;;
11931;SDS011;6025;51.368;6.788;2022-10-30T03:30:17;12.23;;;5.00;;
11931;SDS011;6025;51.368;6.788;2022-10-30T03:35:09;11.73;;;4.32;;
11931;SDS011;6025;51.368;6.788;2022-10-30T03:40:02;8.75;;;4.45;;
11931;SDS011;6025;51.368;6.788;2022-10-30T03:44:53;10.70;;;4.07;;
11931;SDS011;6025;51.368;6.788;2022-10-30T03:49:45;10.73;;;4.70;;
11931;SDS011;6025;51.368;6.788;2022-10-30T03:54:36;8.88;;;4.53;;
11931;SDS011;6025;51.368;6.788;2022-10-30T03:59:29;11.60;;;4.82;;
11931;SDS011;6025;51.368;6.788;2022-10-30T04:04:21;13.43;;;5.40;;
11931;SDS011;6025;51.368;6.788;2022-10-30T04:09:12;9.85;;;4.93;;
11931;SDS011;6025;51.368;6.788;2022-10-30T04:14:04;10.95;;;5.00;;
11931;SDS011;6025;51.368;6.788;2022-10-30T04:18:56;14.88;;;5.47;;
11931;SDS011;6025;51.368;6.788;2022-10-30T04:23:48;10.65;;;5.50;;
11931;SDS011;6025;51.368;6.788;2022-10-30T04:28:39;12.93;;;5.25;;
11931;SDS011;6025;51.368;6.788;2022-10-30T04:33:31;11.10;;;5.20;;
11931;SDS011;6025;51.368;6.788;2022-10-30T04:38:24;12.52;;;5.53;;
11931;SDS011;6025;51.368;6.788;2022-10-30T04:43:15;9.15;;;4.75;;
11931;SDS011;6025;51.368;6.788;2022-10-30T04:48:08;13.70;;;5.13;;
11931;SDS011;6025;51.368;6.788;2022-10-30T04:53:01;16.90;;;5.20;;
11931;SDS011;6025;51.368;6.788;2022-10-30T04:57:58;10.77;;;5.22;;
11931;SDS011;6025;51.368;6.788;2022-10-30T05:02:52;7.93;;;4.95;;
11931;SDS011;6025;51.368;6.788;2022-10-30T05:07:44;11.00;;;4.80;;
11931;SDS011;6025;51.368;6.788;2022-10-30T05:12:35;10.40;;;5.03;;
11931;SDS011;6025;51.368;6.788;2022-10-30T05:17:28;10.80;;;5.03;;
11931;SDS011;6025;51.368;6.788;2022-10-30T05:22:19;15.23;;;5.22;;
11931;SDS011;6025;51.368;6.788;2022-10-30T05:27:11;15.65;;;5.30;;
11931;SDS011;6025;51.368;6.788;2022-10-30T05:32:03;9.60;;;4.88;;
11931;SDS011;6025;51.368;6.788;2022-10-30T05:36:56;13.18;;;5.10;;
11931;SDS011;6025;51.368;6.788;2022-10-30T05:41:47;8.65;;;4.82;;
11931;SDS011;6025;51.368;6.788;2022-10-30T05:46:39;10.70;;;5.03;;
11931;SDS011;6025;51.368;6.788;2022-10-30T05:51:31;13.13;;;5.35;;
11931;SDS011;6025;51.368;6.788;2022-10-30T05:56:24;10.48;;;4.70;;
11931;SDS011;6025;51.368;6.788;2022-10-30T06:01:16;11.57;;;4.82;;
11931;SDS011;6025;51.368;6.788;2022-10-30T06:06:07;8.27;;;4.22;;
11931;SDS011;6025;51.368;6.788;2022-10-30T06:10:59;10.65;;;4.97;;
11931;SDS011;6025;51.368;6.788;2022-10-30T06:15:54;9.73;;;5.05;;
11931;SDS011;6025;51.368;6.788;2022-10-30T06:20:46;14.00;;;5.13;;
11931;SDS011;6025;51.368;6.788;2022-10-30T06:25:37;10.75;;;4.80;;
11931;SDS011;6025;51.368;6.788;2022-10-30T06:30:29;10.35;;;5.00;;
11931;SDS011;6025;51.368;6.788;2022-10-30T06:35:22;11.13;;;4.57;;
11931;SDS011;6025;51.368;6.788;2022-10-30T06:40:14;10.80;;;4.78;;
11931;SDS011;6025;51.368;6.788;2022-10-30T06:45:06;10.75;;;5.10;;
11931;SDS011;6025;51.368;6.788;2022-10-30T06:49:58;11.20;;;4.97;;
11931;SDS011;6025;51.368;6.788;2022-10-30T06:54:51;9.75;;;5.40;;
11931;SDS011;6025;51.368;6.788;2022-10-30T06:59:42;10.55;;;4.95;;
11931;SDS011;6025;51.368;6.788;2022-10-30T07:04:34;10.77;;;5.07;;
11931;SDS011;6025;51.368;6.788;2022-10-30T07:09:25;7.00;;;4.43;;
11931;SDS011;6025;51.368;6.788;2022-10-30T07:14:18;11.05;;;4.47;;
11931;SDS011;6025;51.368;6.788;2022-10-30T07:19:09;8.52;;;4.13;;
11931;SDS011;6025;51.368;6.788;2022-10-30T07:24:01;9.32;;;4.50;;
11931;SDS011;6025;51.368;6.788;2022-10-30T07:28:53;6.25;;;4.45;;
11931;SDS011;6025;51.368;6.788;2022-10-30T07:33:45;10.07;;;4.88;;
11931;SDS011;6025;51.368;6.788;2022-10-30T07:38:37;12.35;;;4.85;;
11931;SDS011;6025;51.368;6.788;2022-10-30T07:43:28;10.30;;;4.88;;
11931;SDS011;6025;51.368;6.788;2022-10-30T07:48:20;11.45;;;4.72;;
11931;SDS011;6025;51.368;6.788;2022-10-30T07:53:13;9.02;;;4.45;;
11931;SDS011;6025;51.368;6.788;2022-10-30T07:58:04;8.07;;;4.70;;
11931;SDS011;6025;51.368;6.788;2022-10-30T08:02:56;9.35;;;4.90;;
11931;SDS011;6025;51.368;6.788;2022-10-30T08:07:48;11.18;;;4.70;;
11931;SDS011;6025;51.368;6.788;2022-10-30T08:12:41;8.80;;;4.85;;
11931;SDS011;6025;51.368;6.788;2022-10-30T08:17:39;11.13;;;4.80;;
11931;SDS011;6025;51.368;6.788;2022-10-30T08:22:31;7.75;;;4.60;;
11931;SDS011;6025;51.368;6.788;2022-10-30T08:27:22;9.55;;;4.50;;
11931;SDS011;6025;51.368;6.788;2022-10-30T08:32:15;14.27;;;4.70;;
11931;SDS011;6025;51.368;6.788;2022-10-30T08:37:07;14.52;;;4.93;;
11931;SDS011;6025;51.368;6.788;2022-10-30T08:41:58;10.60;;;4.40;;
11931;SDS011;6025;51.368;6.788;2022-10-30T08:46:50;10.55;;;4.65;;
11931;SDS011;6025;51.368;6.788;2022-10-30T08:51:43;7.38;;;4.00;;
11931;SDS011;6025;51.368;6.788;2022-10-30T08:56:35;10.75;;;5.00;;
11931;SDS011;6025;51.368;6.788;2022-10-30T09:01:26;8.20;;;4.22;;
11931;SDS011;6025;51.368;6.788;2022-10-30T09:06:18;10.90;;;4.43;;
11931;SDS011;6025;51.368;6.788;2022-10-30T09:11:11;8.90;;;4.32;;
11931;SDS011;6025;51.368;6.788;2022-10-30T09:16:02;11.50;;;4.68;;
11931;SDS011;6025;51.368;6.788;2022-10-30T09:20:54;11.13;;;4.00;;
11931;SDS011;6025;51.368;6.788;2022-10-30T09:25:46;8.02;;;4.03;;
11931;SDS011;6025;51.368;6.788;2022-10-30T09:30:39;11.30;;;4.25;;
11931;SDS011;6025;51.368;6.788;2022-10-30T09:35:30;11.80;;;4.50;;
11931;SDS011;6025;51.368;6.788;2022-10-30T09:40:23;10.90;;;4.40;;
11931;SDS011;6025;51.368;6.788;2022-10-30T09:45:28;8.90;;;4.05;;
11931;SDS011;6025;51.368;6.788;2022-10-30T09:50:33;10.13;;;3.85;;
11931;SDS011;6025;51.368;6.788;2022-10-30T09:55:28;11.45;;;4.03;;
11931;SDS011;6025;51.368;6.788;2022-10-30T10:00:26;8.38;;;3.72;;
11931;SDS011;6025;51.368;6.788;2022-10-30T10:05:23;9.27;;;3.60;;
11931;SDS011;6025;51.368;6.788;2022-10-30T10:10:17;7.40;;;3.60;;
11931;SDS011;6025;51.368;6.788;2022-10-30T10:15:13;7.30;;;3.53;;
11931;SDS011;6025;51.368;6.788;2022-10-30T10:20:12;10.07;;;3.85;;
11931;SDS011;6025;51.368;6.788;2022-10-30T10:25:11;12.52;;;4.00;;
11931;SDS011;6025;51.368;6.788;2022-10-30T10:30:04;8.88;;;4.15;;
11931;SDS011;6025;51.368;6.788;2022-10-30T10:35:04;12.32;;;4.10;;
11931;SDS011;6025;51.368;6.788;2022-10-30T10:40:11;11.35;;;4.07;;
11931;SDS011;6025;51.368;6.788;2022-10-30T10:45:13;13.63;;;3.95;;
11931;SDS011;6025;51.368;6.788;2022-10-30T10:50:14;11.13;;;4.05;;
11931;SDS011;6025;51.368;6.788;2022-10-30T10:55:13;8.82;;;4.20;;
11931;SDS011;6025;51.368;6.788;2022-10-30T11:00:09;13.27;;;3.97;;
11931;SDS011;6025;51.368;6.788;2022-10-30T11:05:05;7.78;;;3.80;;
11931;SDS011;6025;51.368;6.788;2022-10-30T11:09:58;9.50;;;4.32;;
11931;SDS011;6025;51.368;6.788;2022-10-30T11:14:51;11.18;;;4.40;;
11931;SDS011;6025;51.368;6.788;2022-10-30T11:19:43;12.77;;;4.00;;
11931;SDS011;6025;51.368;6.788;2022-10-30T11:24:34;12.38;;;4.00;;
11931;SDS011;6025;51.368;6.788;2022-10-30T11:29:26;12.40;;;3.92;;
11931;SDS011;6025;51.368;6.788;2022-10-30T11:34:24;10.85;;;4.13;;
11931;SDS011;6025;51.368;6.788;2022-10-30T11:39:20;9.43;;;4.00;;
11931;SDS011;6025;51.368;6.788;2022-10-30T11:44:12;9.95;;;4.20;;
11931;SDS011;6025;51.368;6.788;2022-10-30T11:49:03;9.68;;;4.10;;
11931;SDS011;6025;51.368;6.788;2022-10-30T11:53:56;10.35;;;3.95;;
11931;SDS011;6025;51.368;6.788;2022-10-30T11:58:48;10.30;;;3.97;;
11931;SDS011;6025;51.368;6.788;2022-10-30T12:03:42;16.42;;;4.13;;
11931;SDS011;6025;51.368;6.788;2022-10-30T12:08:33;9.38;;;4.53;;
11931;SDS011;6025;51.368;6.788;2022-10-30T12:13:31;7.60;;;3.92;;
11931;SDS011;6025;51.368;6.788;2022-10-30T12:18:26;12.82;;;4.45;;
11931;SDS011;6025;51.368;6.788;2022-10-30T12:23:18;10.25;;;4.28;;
11931;SDS011;6025;51.368;6.788;2022-10-30T12:28:15;18.10;;;4.18;;
11931;SDS011;6025;51.368;6.788;2022-10-30T12:33:11;9.77;;;3.90;;
11931;SDS011;6025;51.368;6.788;2022-10-30T12:38:06;12.45;;;4.40;;
11931;SDS011;6025;51.368;6.788;2022-10-30T12:43:04;10.13;;;3.95;;
11931;SDS011;6025;51.368;6.788;2022-10-30T12:48:02;9.45;;;4.05;;
11931;SDS011;6025;51.368;6.788;2022-10-30T12:53:01;10.57;;;3.88;;
11931;SDS011;6025;51.368;6.788;2022-10-30T12:58:00;12.65;;;3.97;;
11931;SDS011;6025;51.368;6.788;2022-10-30T13:02:55;11.10;;;4.15;;
11931;SDS011;6025;51.368;6.788;2022-10-30T13:07:50;12.05;;;4.47;;
11931;SDS011;6025;51.368;6.788;2022-10-30T13:12:50;12.20;;;3.60;;
11931;SDS011;6025;51.368;6.788;2022-10-30T13:17:45;15.00;;;4.22;;
11931;SDS011;6025;51.368;6.788;2022-10-30T13:22:38;13.05;;;4.18;;
11931;SDS011;6025;51.368;6.788;2022-10-30T13:27:35;12.70;;;4.45;;
11931;SDS011;6025;51.368;6.788;2022-10-30T13:32:35;9.95;;;4.00;;
11931;SDS011;6025;51.368;6.788;2022-10-30T13:37:35;13.55;;;4.50;;
11931;SDS011;6025;51.368;6.788;2022-10-30T13:42:40;13.30;;;4.10;;
11931;SDS011;6025;51.368;6.788;2022-10-30T13:47:41;12.07;;;4.80;;
11931;SDS011;6025;51.368;6.788;2022-10-30T13:52:37;9.05;;;4.38;;
11931;SDS011;6025;51.368;6.788;2022-10-30T13:57:31;10.75;;;4.85;;
11931;SDS011;6025;51.368;6.788;2022-10-30T14:02:30;10.73;;;4.80;;
11931;SDS011;6025;51.368;6.788;2022-10-30T14:07:31;9.77;;;4.85;;
11931;SDS011;6025;51.368;6.788;2022-10-30T14:12:44;12.25;;;4.72;;
11931;SDS011;6025;51.368;6.788;2022-10-30T14:17:49;13.55;;;4.63;;
11931;SDS011;6025;51.368;6.788;2022-10-30T14:23:21;11.55;;;5.28;;
11931;SDS011;6025;51.368;6.788;2022-10-30T14:28:17;10.45;;;4.45;;
11931;SDS011;6025;51.368;6.788;2022-10-30T14:33:20;9.20;;;4.28;;
11931;SDS011;6025;51.368;6.788;2022-10-30T14:38:26;14.02;;;4.95;;
11931;SDS011;6025;51.368;6.788;2022-10-30T14:43:19;16.52;;;4.82;;
11931;SDS011;6025;51.368;6.788;2022-10-30T14:48:17;12.77;;;4.65;;
11931;SDS011;6025;51.368;6.788;2022-10-30T14:53:25;10.65;;;4.13;;
11931;SDS011;6025;51.368;6.788;2022-10-30T14:58:23;11.40;;;4.72;;
11931;SDS011;6025;51.368;6.788;2022-10-30T15:03:25;13.25;;;5.00;;
11931;SDS011;6025;51.368;6.788;2022-10-30T15:08:35;13.75;;;4.97;;
11931;SDS011;6025;51.368;6.788;2022-10-30T15:13:32;11.00;;;4.00;;
11931;SDS011;6025;51.368;6.788;2022-10-30T15:18:23;9.20;;;4.28;;
11931;SDS011;6025;51.368;6.788;2022-10-30T15:23:17;12.90;;;4.53;;
11931;SDS011;6025;51.368;6.788;2022-10-30T15:28:13;12.32;;;4.35;;
11931;SDS011;6025;51.368;6.788;2022-10-30T15:33:15;14.60;;;4.22;;
11931;SDS011;6025;51.368;6.788;2022-10-30T15:38:09;13.70;;;5.00;;
11931;SDS011;6025;51.368;6.788;2022-10-30T15:43:00;14.90;;;5.63;;
11931;SDS011;6025;51.368;6.788;2022-10-30T15:48:00;11.48;;;5.32;;
11931;SDS011;6025;51.368;6.788;2022-10-30T15:52:54;11.25;;;4.93;;
11931;SDS011;6025;51.368;6.788;2022-10-30T15:57:46;11.93;;;5.18;;
11931;SDS011;6025;51.368;6.788;2022-10-30T16:02:40;11.40;;;5.15;;
11931;SDS011;6025;51.368;6.788;2022-10-30T16:07:33;10.23;;;5.18;;
11931;SDS011;6025;51.368;6.788;2022-10-30T16:12:24;10.52;;;4.53;;
11931;SDS011;6025;51.368;6.788;2022-10-30T16:17:17;10.57;;;4.93;;
11931;SDS011;6025;51.368;6.788;2022-10-30T16:22:09;10.05;;;5.05;;
11931;SDS011;6025;51.368;6.788;2022-10-30T16:27:06;11.10;;;4.95;;
11931;SDS011;6025;51.368;6.788;2022-10-30T16:32:05;10.75;;;5.05;;
11931;SDS011;6025;51.368;6.788;2022-10-30T16:37:00;8.80;;;5.00;;
11931;SDS011;6025;51.368;6.788;2022-10-30T16:41:54;10.45;;;4.95;;
11931;SDS011;6025;51.368;6.788;2022-10-30T16:46:49;8.32;;;4.72;;
11931;SDS011;6025;51.368;6.788;2022-10-30T16:51:41;11.80;;;5.47;;
11931;SDS011;6025;51.368;6.788;2022-10-30T16:56:33;14.02;;;6.00;;
11931;SDS011;6025;51.368;6.788;2022-10-30T17:01:24;13.98;;;6.80;;
11931;SDS011;6025;51.368;6.788;2022-10-30T17:06:25;12.40;;;5.72;;
11931;SDS011;6025;51.368;6.788;2022-10-30T17:11:19;10.32;;;5.05;;
11931;SDS011;6025;51.368;6.788;2022-10-30T17:16:15;16.88;;;5.43;;
11931;SDS011;6025;51.368;6.788;2022-10-30T17:21:09;10.73;;;5.13;;
11931;SDS011;6025;51.368;6.788;2022-10-30T17:26:07;13.57;;;5.43;;
11931;SDS011;6025;51.368;6.788;2022-10-30T17:31:06;13.45;;;6.03;;
11931;SDS011;6025;51.368;6.788;2022-10-30T17:36:10;15.27;;;5.80;;
11931;SDS011;6025;51.368;6.788;2022-10-30T17:41:02;11.20;;;5.28;;
11931;SDS011;6025;51.368;6.788;2022-10-30T17:45:55;13.40;;;5.57;;
11931;SDS011;6025;51.368;6.788;2022-10-30T17:50:47;14.35;;;5.60;;
11931;SDS011;6025;51.368;6.788;2022-10-30T17:55:38;9.90;;;5.43;;
11931;SDS011;6025;51.368;6.788;2022-10-30T18:00:31;16.15;;;4.70;;
11931;SDS011;6025;51.368;6.788;2022-10-30T18:05:24;9.93;;;5.03;;
11931;SDS011;6025;51.368;6.788;2022-10-30T18:10:19;16.20;;;5.25;;
11931;SDS011;6025;51.368;6.788;2022-10-30T18:15:13;11.80;;;4.95;;
11931;SDS011;6025;51.368;6.788;2022-10-30T18:20:13;13.15;;;4.70;;
11931;SDS011;6025;51.368;6.788;2022-10-30T18:25:09;10.73;;;4.90;;
11931;SDS011;6025;51.368;6.788;2022-10-30T18:30:06;16.05;;;5.45;;
11931;SDS011;6025;51.368;6.788;2022-10-30T18:34:59;13.10;;;5.63;;
11931;SDS011;6025;51.368;6.788;2022-10-30T18:39:50;14.05;;;6.13;;
11931;SDS011;6025;51.368;6.788;2022-10-30T18:44:43;16.17;;;5.38;;
11931;SDS011;6025;51.368;6.788;2022-10-30T18:49:35;10.50;;;5.32;;
11931;SDS011;6025;51.368;6.788;2022-10-30T18:54:27;15.85;;;5.63;;
11931;SDS011;6025;51.368;6.788;2022-10-30T18:59:18;15.27;;;5.18;;
11931;SDS011;6025;51.368;6.788;2022-10-30T19:04:12;15.60;;;5.95;;
11931;SDS011;6025;51.368;6.788;2022-10-30T19:09:03;10.02;;;5.97;;
11931;SDS011;6025;51.368;6.788;2022-10-30T19:13:55;22.02;;;10.32;;
11931;SDS011;6025;51.368;6.788;2022-10-30T19:18:47;20.63;;;11.05;;
11931;SDS011;6025;51.368;6.788;2022-10-30T19:23:40;21.70;;;10.80;;
11931;SDS011;6025;51.368;6.788;2022-10-30T19:28:31;20.13;;;9.73;;
11931;SDS011;6025;51.368;6.788;2022-10-30T19:33:23;16.05;;;6.10;;
11931;SDS011;6025;51.368;6.788;2022-10-30T19:38:15;13.88;;;7.57;;
11931;SDS011;6025;51.368;6.788;2022-10-30T19:43:08;11.23;;;5.93;;
11931;SDS011;6025;51.368;6.788;2022-10-30T19:48:00;13.88;;;5.90;;
11931;SDS011;6025;51.368;6.788;2022-10-30T19:52:55;14.75;;;6.35;;
11931;SDS011;6025;51.368;6.788;2022-10-30T19:57:48;13.02;;;5.53;;
11931;SDS011;6025;51.368;6.788;2022-10-30T20:02:41;10.63;;;5.45;;
11931;SDS011;6025;51.368;6.788;2022-10-30T20:07:33;10.00;;;5.97;;
11931;SDS011;6025;51.368;6.788;2022-10-30T20:12:24;9.23;;;5.35;;
11931;SDS011;6025;51.368;6.788;2022-10-30T20:17:16;9.73;;;5.55;;
11931;SDS011;6025;51.368;6.788;2022-10-30T20:22:10;12.60;;;5.32;;
11931;SDS011;6025;51.368;6.788;2022-10-30T20:27:02;12.85;;;5.70;;
11931;SDS011;6025;51.368;6.788;2022-10-30T20:31:53;12.40;;;5.68;;
11931;SDS011;6025;51.368;6.788;2022-10-30T20:36:45;9.57;;;5.05;;
11931;SDS011;6025;51.368;6.788;2022-10-30T20:41:38;11.68;;;5.68;;
11931;SDS011;6025;51.368;6.788;2022-10-30T20:46:30;10.73;;;5.15;;
11931;SDS011;6025;51.368;6.788;2022-10-30T20:51:22;7.88;;;5.53;;
11931;SDS011;6025;51.368;6.788;2022-10-30T20:56:14;9.90;;;5.55;;
11931;SDS011;6025;51.368;6.788;2022-10-30T21:01:07;10.65;;;5.32;;
11931;SDS011;6025;51.368;6.788;2022-10-30T21:05:59;9.90;;;5.60;;
11931;SDS011;6025;51.368;6.788;2022-10-30T21:10:51;11.00;;;5.30;;
11931;SDS011;6025;51.368;6.788;2022-10-30T21:15:43;11.00;;;5.35;;
11931;SDS011;6025;51.368;6.788;2022-10-30T21:20:36;10.50;;;5.53;;
11931;SDS011;6025;51.368;6.788;2022-10-30T21:25:28;8.52;;;5.05;;
11931;SDS011;6025;51.368;6.788;2022-10-30T21:30:21;12.35;;;5.50;;
11931;SDS011;6025;51.368;6.788;2022-10-30T21:35:12;10.13;;;5.18;;
11931;SDS011;6025;51.368;6.788;2022-10-30T21:40:06;12.85;;;5.20;;
11931;SDS011;6025;51.368;6.788;2022-10-30T21:44:59;8.77;;;5.28;;
11931;SDS011;6025;51.368;6.788;2022-10-30T21:49:50;10.55;;;4.95;;
11931;SDS011;6025;51.368;6.788;2022-10-30T21:54:42;12.68;;;5.13;;
11931;SDS011;6025;51.368;6.788;2022-10-30T21:59:34;11.35;;;5.20;;
11931;SDS011;6025;51.368;6.788;2022-10-30T22:04:26;13.25;;;5.72;;
11931;SDS011;6025;51.368;6.788;2022-10-30T22:09:18;10.50;;;5.20;;
11931;SDS011;6025;51.368;6.788;2022-10-30T22:14:10;12.07;;;5.20;;
11931;SDS011;6025;51.368;6.788;2022-10-30T22:19:03;11.98;;;5.57;;
11931;SDS011;6025;51.368;6.788;2022-10-30T22:23:57;14.40;;;5.00;;
11931;SDS011;6025;51.368;6.788;2022-10-30T22:28:50;10.38;;;5.10;;
11931;SDS011;6025;51.368;6.788;2022-10-30T22:33:42;11.30;;;5.38;;
11931;SDS011;6025;51.368;6.788;2022-10-30T22:38:35;16.33;;;5.35;;
11931;SDS011;6025;51.368;6.788;2022-10-30T22:43:27;11.85;;;6.00;;
11931;SDS011;6025;51.368;6.788;2022-10-30T22:48:19;10.60;;;5.53;;
11931;SDS011;6025;51.368;6.788;2022-10-30T22:53:10;12.93;;;5.20;;
11931;SDS011;6025;51.368;6.788;2022-10-30T22:58:03;12.93;;;5.15;;
11931;SDS011;6025;51.368;6.788;2022-10-30T23:02:55;10.23;;;4.68;;
11931;SDS011;6025;51.368;6.788;2022-10-30T23:07:46;12.32;;;5.10;;
11931;SDS011;6025;51.368;6.788;2022-10-30T23:12:38;12.90;;;5.57;;
11931;SDS011;6025;51.368;6.788;2022-10-30T23:17:30;13.82;;;5.85;;
11931;SDS011;6025;51.368;6.788;2022-10-30T23:22:22;14.13;;;5.57;;
11931;SDS011;6025;51.368;6.788;2022-10-30T23:27:13;11.00;;;5.28;;
11931;SDS011;6025;51.368;6.788;2022-10-30T23:32:05;13.40;;;5.75;;
11931;SDS011;6025;51.368;6.788;2022-10-30T23:36:58;11.05;;;5.68;;
11931;SDS011;6025;51.368;6.788;2022-10-30T23:41:52;12.02;;;5.45;;
11931;SDS011;6025;51.368;6.788;2022-10-30T23:46:43;10.32;;;5.13;;
11931;SDS011;6025;51.368;6.788;2022-10-30T23:51:35;10.00;;;5.60;;
11931;SDS011;6025;51.368;6.788;2022-10-30T23:56:28;10.90;;;5.63;;
